createdAt,value
2022-08-09T00:00:23.314Z,9.38
2022-08-09T00:02:58.001Z,10.43
2022-08-09T00:06:15.346Z,8.85
2022-08-09T00:08:31.951Z,8.95
2022-08-09T00:11:05.937Z,6.32
2022-08-09T00:13:49.346Z,13.75
2022-08-09T00:16:25.931Z,8.65
2022-08-09T00:18:54.226Z,11.10
2022-08-09T00:21:22.363Z,9.48
2022-08-09T00:23:55.883Z,11.20
2022-08-09T00:26:30.074Z,9.57
2022-08-09T00:29:02.823Z,10.10
2022-08-09T00:31:59.865Z,9.65
2022-08-09T00:34:26.193Z,8.88
2022-08-09T00:36:58.663Z,6.93
2022-08-09T00:40:12.804Z,9.35
2022-08-09T00:44:11.611Z,9.68
2022-08-09T00:45:15.698Z,8.65
2022-08-09T00:47:46.138Z,8.73
2022-08-09T00:50:15.176Z,11.57
2022-08-09T00:52:43.887Z,8.93
2022-08-09T00:55:32.892Z,9.98
2022-08-09T00:58:00.867Z,12.45
2022-08-09T01:00:29.889Z,10.68
2022-08-09T01:03:14.579Z,11.18
2022-08-09T01:05:53.840Z,11.27
2022-08-09T01:08:31.183Z,11.23
2022-08-09T01:11:14.967Z,11.20
2022-08-09T01:13:58.911Z,14.25
2022-08-09T01:16:35.023Z,13.90
2022-08-09T01:19:16.902Z,13.35
2022-08-09T01:22:15.389Z,11.05
2022-08-09T01:24:56.818Z,9.73
2022-08-09T01:27:29.234Z,9.13
2022-08-09T01:30:02.101Z,11.85
2022-08-09T01:32:36.057Z,11.00
2022-08-09T01:35:28.192Z,11.18
2022-08-09T01:38:07.815Z,10.00
2022-08-09T01:40:44.222Z,11.13
2022-08-09T01:43:15.959Z,11.95
2022-08-09T01:45:47.582Z,8.15
2022-08-09T01:48:18.413Z,12.18
2022-08-09T01:50:54.984Z,11.60
2022-08-09T01:53:29.264Z,11.18
2022-08-09T01:56:11.680Z,10.27
2022-08-09T01:58:43.869Z,12.85
2022-08-09T02:01:18.712Z,12.20
2022-08-09T02:03:48.455Z,12.13
2022-08-09T02:06:38.974Z,12.85
2022-08-09T02:09:15.976Z,12.13
2022-08-09T02:11:46.898Z,10.00
2022-08-09T02:14:26.236Z,10.38
2022-08-09T02:17:14.680Z,10.73
2022-08-09T02:19:45.323Z,11.07
2022-08-09T02:22:31.751Z,10.57
2022-08-09T02:25:08.435Z,11.25
2022-08-09T02:27:57.621Z,12.60
2022-08-09T02:30:32.978Z,14.23
2022-08-09T02:33:03.763Z,11.60
2022-08-09T02:36:01.370Z,12.35
2022-08-09T02:38:31.239Z,12.15
2022-08-09T02:41:04.423Z,13.25
2022-08-09T02:43:53.521Z,13.52
2022-08-09T02:46:28.434Z,15.52
2022-08-09T02:49:02.835Z,12.80
2022-08-09T02:51:37.102Z,10.80
2022-08-09T02:54:13.709Z,11.63
2022-08-09T02:56:51.339Z,13.15
2022-08-09T02:59:26.195Z,12.95
2022-08-09T03:02:11.898Z,13.90
2022-08-09T03:04:41.891Z,10.75
2022-08-09T03:07:12.336Z,13.05
2022-08-09T03:09:54.342Z,12.07
2022-08-09T03:12:26.448Z,11.77
2022-08-09T03:14:56.000Z,14.68
2022-08-09T03:17:27.607Z,12.65
2022-08-09T03:20:05.202Z,14.10
2022-08-09T03:22:42.123Z,14.40
2022-08-09T03:25:26.380Z,12.30
2022-08-09T03:28:05.036Z,12.70
2022-08-09T03:30:40.510Z,15.52
2022-08-09T03:33:18.605Z,14.98
2022-08-09T03:36:13.142Z,13.95
2022-08-09T03:38:41.928Z,13.25
2022-08-09T03:41:15.576Z,12.77
2022-08-09T03:43:51.867Z,11.90
2022-08-09T03:46:32.428Z,13.55
2022-08-09T03:49:08.488Z,11.75
2022-08-09T03:51:55.108Z,12.05
2022-08-09T03:54:31.320Z,12.45
2022-08-09T03:57:04.247Z,14.75
2022-08-09T03:59:52.875Z,13.55
2022-08-09T04:02:45.015Z,15.07
2022-08-09T04:05:26.544Z,12.75
2022-08-09T04:07:57.286Z,12.23
2022-08-09T04:10:29.257Z,14.18
2022-08-09T04:13:00.731Z,11.25
2022-08-09T04:16:18.488Z,13.05
2022-08-09T04:18:21.314Z,11.73
2022-08-09T04:20:51.886Z,12.25
2022-08-09T04:23:24.590Z,12.10
2022-08-09T04:25:54.317Z,12.80
2022-08-09T04:28:33.327Z,12.13
2022-08-09T04:31:09.027Z,14.13
2022-08-09T04:33:53.049Z,13.25
2022-08-09T04:36:28.355Z,12.50
2022-08-09T04:38:59.189Z,12.02
2022-08-09T04:41:32.638Z,12.30
2022-08-09T04:44:07.252Z,12.38
2022-08-09T04:46:58.496Z,13.25
2022-08-09T04:49:54.585Z,12.95
2022-08-09T04:52:26.368Z,12.30
2022-08-09T04:54:56.398Z,11.82
2022-08-09T04:57:25.397Z,11.98
2022-08-09T04:59:56.306Z,12.00
2022-08-09T05:02:27.320Z,11.65
2022-08-09T05:04:56.452Z,14.38
2022-08-09T05:07:27.754Z,12.75
2022-08-09T05:10:01.963Z,14.18
2022-08-09T05:12:33.210Z,11.60
2022-08-09T05:15:11.635Z,14.95
2022-08-09T05:18:38.717Z,14.23
2022-08-09T05:20:30.456Z,12.90
2022-08-09T05:23:53.785Z,15.98
2022-08-09T05:25:50.636Z,14.88
2022-08-09T05:28:19.919Z,13.93
2022-08-09T05:30:48.736Z,16.15
2022-08-09T05:33:26.323Z,17.15
2022-08-09T05:36:01.810Z,16.75
2022-08-09T05:38:32.077Z,16.58
2022-08-09T05:41:00.740Z,16.98
2022-08-09T05:43:32.011Z,18.42
2022-08-09T05:46:00.912Z,14.55
2022-08-09T05:48:32.936Z,16.02
2022-08-09T05:51:42.446Z,17.52
2022-08-09T05:53:57.296Z,18.20
2022-08-09T05:56:28.368Z,15.30
2022-08-09T05:58:59.154Z,15.35
2022-08-09T06:01:33.946Z,16.27
2022-08-09T06:04:12.085Z,14.88
2022-08-09T06:06:46.767Z,13.65
2022-08-09T06:09:23.060Z,14.45
2022-08-09T06:12:09.296Z,15.70
2022-08-09T06:14:37.601Z,13.50
2022-08-09T06:17:09.899Z,12.43
2022-08-09T06:19:38.972Z,11.98
2022-08-09T06:22:15.198Z,11.82
2022-08-09T06:24:48.990Z,11.02
2022-08-09T06:27:17.360Z,14.73
2022-08-09T06:29:48.006Z,10.95
2022-08-09T06:32:59.876Z,12.13
2022-08-09T06:35:15.496Z,10.70
2022-08-09T06:37:53.141Z,12.88
2022-08-09T06:40:33.719Z,8.40
2022-08-09T06:43:02.254Z,8.73
2022-08-09T06:46:05.102Z,8.80
2022-08-09T06:48:30.115Z,8.40
2022-08-09T06:50:58.981Z,7.40
2022-08-09T06:53:33.348Z,7.72
2022-08-09T06:56:09.540Z,7.10
2022-08-09T07:00:47.509Z,7.10
2022-08-09T07:01:27.565Z,6.60
2022-08-09T07:04:04.367Z,5.57
2022-08-09T07:06:32.972Z,5.80
2022-08-09T07:09:02.666Z,6.05
2022-08-09T07:11:45.541Z,8.27
2022-08-09T07:14:26.716Z,4.40
2022-08-09T07:16:58.253Z,6.75
2022-08-09T07:19:26.659Z,6.93
2022-08-09T07:21:58.947Z,4.45
2022-08-09T07:24:31.918Z,4.80
2022-08-09T07:27:27.194Z,6.55
2022-08-09T07:30:00.518Z,4.55
2022-08-09T07:32:32.675Z,3.83
2022-08-09T07:35:07.891Z,4.60
2022-08-09T07:37:42.932Z,3.30
2022-08-09T07:40:16.968Z,3.78
2022-08-09T07:42:56.145Z,6.95
2022-08-09T07:45:37.702Z,4.07
2022-08-09T07:48:22.389Z,5.70
2022-08-09T07:51:02.966Z,4.72
2022-08-09T07:54:04.726Z,3.75
2022-08-09T07:56:27.930Z,3.90
2022-08-09T07:59:00.913Z,2.80
2022-08-09T08:01:33.932Z,3.25
2022-08-09T08:04:03.457Z,3.88
2022-08-09T08:06:32.628Z,4.05
2022-08-09T08:09:05.390Z,4.45
2022-08-09T08:12:12.019Z,3.55
2022-08-09T08:14:35.837Z,4.18
2022-08-09T08:17:08.709Z,2.33
2022-08-09T08:19:37.595Z,3.22
2022-08-09T08:22:05.901Z,5.10
2022-08-09T08:24:40.555Z,2.83
2022-08-09T08:27:17.089Z,1.75
2022-08-09T08:29:50.150Z,2.15
2022-08-09T08:32:24.148Z,3.55
2022-08-09T08:34:58.814Z,5.07
2022-08-09T08:37:41.050Z,2.67
2022-08-09T08:40:11.786Z,4.10
2022-08-09T08:42:40.625Z,3.05
2022-08-09T08:45:15.007Z,3.67
2022-08-09T08:47:46.045Z,3.00
2022-08-09T08:50:18.232Z,1.98
2022-08-09T08:52:59.089Z,2.95
2022-08-09T08:55:28.326Z,4.55
2022-08-09T08:58:00.549Z,4.78
2022-08-09T09:00:34.436Z,5.72
2022-08-09T09:03:11.831Z,1.77
2022-08-09T09:05:59.742Z,2.25
2022-08-09T09:08:32.320Z,3.67
2022-08-09T09:11:09.114Z,2.83
2022-08-09T09:13:57.557Z,1.60
2022-08-09T09:16:31.868Z,3.45
2022-08-09T09:19:37.714Z,3.67
2022-08-09T09:22:07.460Z,3.17
2022-08-09T09:24:38.183Z,2.78
2022-08-09T09:28:02.804Z,1.38
2022-08-09T09:33:02.756Z,1.65
2022-08-09T09:36:02.410Z,1.85
2022-08-09T09:38:46.880Z,3.78
2022-08-09T09:41:33.444Z,2.10
2022-08-09T09:44:25.354Z,6.18
2022-08-09T09:46:58.513Z,3.28
2022-08-09T09:49:50.053Z,1.50
2022-08-09T09:52:33.632Z,4.80
2022-08-09T09:55:16.787Z,4.07
2022-08-09T09:58:01.150Z,1.33
2022-08-09T10:00:33.683Z,2.28
2022-08-09T10:03:11.705Z,1.58
2022-08-09T10:06:04.661Z,1.55
2022-08-09T10:08:43.045Z,2.42
2022-08-09T10:11:58.996Z,3.47
2022-08-09T10:14:31.051Z,4.63
2022-08-09T10:17:39.263Z,4.45
2022-08-09T10:20:00.064Z,3.45
2022-08-09T10:22:37.379Z,2.42
2022-08-09T10:25:11.660Z,2.65
2022-08-09T10:27:45.151Z,2.42
2022-08-09T10:33:29.580Z,3.13
2022-08-09T10:36:04.459Z,2.53
2022-08-09T10:38:57.257Z,2.08
2022-08-09T10:41:22.386Z,2.28
2022-08-09T10:43:58.759Z,4.70
2022-08-09T10:47:00.720Z,2.92
2022-08-09T10:49:50.347Z,2.65
2022-08-09T10:52:42.774Z,2.17
2022-08-09T10:55:26.254Z,2.40
2022-08-09T10:58:00.343Z,3.78
2022-08-09T11:01:35.849Z,2.67
2022-08-09T11:03:50.666Z,2.33
2022-08-09T11:06:24.534Z,2.25
2022-08-09T11:08:54.106Z,3.72
2022-08-09T11:11:24.444Z,3.35
2022-08-09T11:14:28.827Z,3.22
2022-08-09T11:17:00.188Z,2.97
2022-08-09T11:20:07.872Z,4.63
2022-08-09T11:23:10.022Z,1.52
2022-08-09T11:25:47.516Z,1.58
2022-08-09T11:28:56.154Z,3.08
2022-08-09T11:31:49.742Z,5.07
2022-08-09T11:34:43.979Z,2.85
2022-08-09T11:37:31.230Z,2.65
2022-08-09T11:40:11.459Z,1.80
2022-08-09T11:42:48.501Z,3.35
2022-08-09T11:45:42.187Z,3.13
2022-08-09T11:48:26.353Z,5.32
2022-08-09T11:53:00.982Z,1.88
2022-08-09T11:54:27.908Z,5.43
2022-08-09T11:57:47.510Z,2.53
2022-08-09T12:00:30.932Z,3.03
2022-08-09T12:03:09.839Z,5.78
2022-08-09T12:05:51.047Z,3.58
2022-08-09T12:08:21.905Z,2.63
2022-08-09T12:10:53.663Z,2.78
2022-08-09T12:14:08.117Z,2.60
2022-08-09T12:16:37.245Z,3.15
2022-08-09T12:19:09.228Z,3.28
2022-08-09T12:21:48.638Z,2.65
2022-08-09T12:24:22.416Z,3.08
2022-08-09T12:29:12.230Z,4.45
2022-08-09T12:30:01.500Z,3.30
2022-08-09T12:32:44.586Z,4.18
2022-08-09T12:35:19.386Z,2.22
2022-08-09T12:37:51.965Z,2.25
2022-08-09T12:40:24.442Z,3.65
2022-08-09T12:42:53.146Z,2.03
2022-08-09T12:45:34.442Z,6.05
2022-08-09T12:48:20.035Z,4.43
2022-08-09T12:50:59.711Z,3.40
2022-08-09T12:55:00.790Z,2.33
2022-08-09T12:57:42.171Z,3.83
2022-08-09T13:00:25.225Z,3.33
2022-08-09T13:02:56.768Z,5.90
2022-08-09T13:05:35.470Z,3.95
2022-08-09T13:08:21.316Z,4.10
2022-08-09T13:11:23.121Z,4.72
2022-08-09T13:14:37.911Z,3.10
2022-08-09T13:20:08.644Z,5.05
2022-08-09T13:23:05.322Z,2.50
2022-08-09T13:25:42.372Z,2.42
2022-08-09T13:28:18.827Z,3.55
2022-08-09T13:32:18.119Z,4.50
2022-08-09T13:33:54.748Z,3.95
2022-08-09T13:36:39.947Z,6.35
2022-08-09T13:41:17.706Z,2.92
2022-08-09T13:42:04.591Z,2.20
2022-08-09T13:44:34.044Z,4.85
2022-08-09T13:47:29.049Z,2.72
2022-08-09T13:50:02.928Z,6.00
2022-08-09T13:52:33.360Z,4.65
2022-08-09T13:55:07.204Z,4.95
2022-08-09T13:57:40.195Z,3.22
2022-08-09T14:00:13.260Z,4.38
2022-08-09T14:03:16.799Z,3.03
2022-08-09T14:05:59.035Z,6.45
2022-08-09T14:08:20.724Z,6.20
2022-08-09T14:10:52.317Z,2.33
2022-08-09T14:14:15.643Z,1.40
2022-08-09T14:16:13.990Z,1.55
2022-08-09T14:18:49.345Z,2.97
2022-08-09T14:21:20.316Z,1.58
2022-08-09T14:23:54.542Z,3.50
2022-08-09T14:26:32.468Z,3.65
2022-08-09T14:29:03.568Z,3.00
2022-08-09T14:31:52.218Z,2.30
2022-08-09T14:34:27.545Z,3.78
2022-08-09T14:37:06.633Z,1.80
2022-08-09T14:39:40.206Z,2.33
2022-08-09T14:42:31.456Z,2.25
2022-08-09T14:46:40.385Z,1.40
2022-08-09T14:48:09.480Z,2.67
2022-08-09T14:50:38.168Z,2.03
2022-08-09T14:53:12.248Z,2.35
2022-08-09T14:55:41.860Z,1.27
2022-08-09T14:58:19.866Z,1.20
2022-08-09T15:00:51.218Z,1.70
2022-08-09T15:03:21.012Z,2.22
2022-08-09T15:05:54.846Z,1.85
2022-08-09T15:08:26.474Z,1.63
2022-08-09T15:11:01.162Z,1.80
2022-08-09T15:13:48.064Z,4.35
2022-08-09T15:16:19.822Z,2.90
2022-08-09T15:18:49.119Z,3.03
2022-08-09T15:21:55.525Z,3.47
2022-08-09T15:24:16.199Z,2.75
2022-08-09T15:26:49.013Z,3.17
2022-08-09T15:30:58.869Z,1.65
2022-08-09T15:32:39.219Z,0.88
2022-08-09T15:35:01.169Z,1.15
2022-08-09T15:37:56.109Z,3.78
2022-08-09T15:40:25.276Z,1.60
2022-08-09T15:43:00.582Z,3.55
2022-08-09T15:45:51.661Z,1.83
2022-08-09T15:48:28.959Z,1.25
2022-08-09T15:50:59.001Z,1.85
2022-08-09T15:54:04.581Z,1.10
2022-08-09T15:56:28.407Z,1.58
2022-08-09T15:58:59.154Z,3.30
2022-08-09T16:01:31.409Z,3.00
2022-08-09T16:04:03.927Z,2.03
2022-08-09T16:06:34.856Z,1.42
2022-08-09T16:09:05.211Z,2.25
2022-08-09T16:11:33.970Z,1.48
2022-08-09T16:14:07.042Z,1.13
2022-08-09T16:16:42.055Z,2.15
2022-08-09T16:19:15.071Z,2.05
2022-08-09T16:21:48.574Z,2.13
2022-08-09T16:24:33.190Z,3.00
2022-08-09T16:27:05.766Z,4.03
2022-08-09T16:29:37.411Z,0.77
2022-08-09T16:32:33.517Z,1.60
2022-08-09T16:35:02.739Z,1.55
2022-08-09T16:37:55.474Z,3.22
2022-08-09T16:40:29.859Z,1.75
2022-08-09T16:43:08.328Z,1.30
2022-08-09T16:45:43.921Z,0.88
2022-08-09T16:48:42.730Z,3.20
2022-08-09T16:51:08.163Z,1.48
2022-08-09T16:53:37.312Z,1.05
2022-08-09T16:56:10.401Z,2.92
2022-08-09T16:58:39.896Z,1.92
2022-08-09T17:01:19.148Z,1.67
2022-08-09T17:03:49.164Z,5.63
2022-08-09T17:06:31.786Z,0.80
2022-08-09T17:09:17.784Z,0.60
2022-08-09T17:11:52.646Z,1.02
2022-08-09T17:14:26.980Z,2.42
2022-08-09T17:16:59.878Z,1.48
2022-08-09T17:19:47.312Z,2.40
2022-08-09T17:22:23.641Z,5.30
2022-08-09T17:25:03.346Z,2.35
2022-08-09T17:27:33.357Z,4.30
2022-08-09T17:30:04.811Z,0.63
2022-08-09T17:32:38.340Z,3.55
2022-08-09T17:35:11.227Z,2.83
2022-08-09T17:38:02.199Z,1.05
2022-08-09T17:41:02.932Z,2.00
2022-08-09T17:43:37.632Z,1.88
2022-08-09T17:46:08.960Z,2.75
2022-08-09T17:48:40.171Z,0.50
2022-08-09T17:51:18.614Z,1.25
2022-08-09T17:53:51.824Z,3.10
2022-08-09T17:56:26.647Z,2.10
2022-08-09T17:58:56.867Z,1.00
2022-08-09T18:01:25.077Z,0.82
2022-08-09T18:03:54.431Z,2.15
2022-08-09T18:06:32.348Z,0.80
2022-08-09T18:09:03.141Z,1.83
2022-08-09T18:12:05.691Z,1.63
2022-08-09T18:14:23.490Z,3.78
2022-08-09T18:16:54.123Z,1.30
2022-08-09T18:20:59.614Z,1.55
2022-08-09T18:22:17.070Z,1.55
2022-08-09T18:24:46.647Z,2.10
2022-08-09T18:27:49.207Z,0.80
2022-08-09T18:30:41.160Z,2.00
2022-08-09T18:32:54.062Z,3.47
2022-08-09T18:35:47.930Z,2.17
2022-08-09T18:38:16.468Z,3.55
2022-08-09T18:40:48.262Z,2.22
2022-08-09T18:43:52.929Z,4.32
2022-08-09T18:46:46.809Z,2.47
2022-08-09T18:49:09.859Z,3.03
2022-08-09T18:51:54.908Z,2.47
2022-08-09T18:54:30.499Z,5.10
2022-08-09T18:57:05.817Z,2.65
2022-08-09T18:59:48.496Z,2.20
2022-08-09T19:02:18.685Z,1.73
2022-08-09T19:05:04.403Z,1.52
2022-08-09T19:07:41.064Z,1.67
2022-08-09T19:10:17.745Z,1.88
2022-08-09T19:12:51.449Z,1.63
2022-08-09T19:15:27.292Z,3.42
2022-08-09T19:17:58.270Z,2.67
2022-08-09T19:20:34.390Z,1.83
2022-08-09T19:23:08.187Z,2.95
2022-08-09T19:26:02.019Z,2.13
2022-08-09T19:28:34.894Z,2.25
2022-08-09T19:31:07.749Z,4.32
2022-08-09T19:33:36.213Z,2.10
2022-08-09T19:36:05.108Z,2.60
2022-08-09T19:38:39.939Z,3.13
2022-08-09T19:41:09.482Z,3.40
2022-08-09T19:44:02.057Z,3.78
2022-08-09T19:46:34.190Z,3.78
2022-08-09T19:50:08.877Z,3.55
2022-08-09T19:51:55.685Z,2.88
2022-08-09T19:54:25.407Z,2.83
2022-08-09T19:56:55.002Z,3.45
2022-08-09T19:59:59.503Z,8.65
2022-08-09T20:02:17.208Z,2.88
2022-08-09T20:05:09.987Z,4.28
2022-08-09T20:07:59.470Z,5.75
2022-08-09T20:10:34.890Z,4.55
2022-08-09T20:13:08.299Z,6.50
2022-08-09T20:16:36.456Z,2.05
2022-08-09T20:18:27.994Z,3.75
2022-08-09T20:20:57.002Z,3.53
2022-08-09T20:23:38.975Z,4.63
2022-08-09T20:26:08.456Z,2.90
2022-08-09T20:28:48.789Z,5.00
2022-08-09T20:31:18.199Z,3.05
2022-08-09T20:33:46.636Z,3.30
2022-08-09T20:36:20.673Z,4.18
2022-08-09T20:41:37.387Z,4.63
2022-08-09T20:44:10.539Z,4.80
2022-08-09T20:46:43.139Z,5.88
2022-08-09T20:49:16.067Z,4.93
2022-08-09T20:51:50.360Z,6.05
2022-08-09T20:54:19.146Z,5.60
2022-08-09T20:56:49.888Z,5.50
2022-08-09T21:00:19.881Z,6.25
2022-08-09T21:02:18.446Z,6.45
2022-08-09T21:05:57.996Z,5.55
2022-08-09T21:07:40.433Z,6.43
2022-08-09T21:10:12.521Z,6.43
2022-08-09T21:15:33.988Z,4.18
2022-08-09T21:18:21.967Z,5.40
2022-08-09T21:20:54.367Z,6.43
2022-08-09T21:23:47.136Z,10.43
2022-08-09T21:26:10.875Z,6.40
2022-08-09T21:28:39.667Z,8.27
2022-08-09T21:31:49.405Z,6.35
2022-08-09T21:34:14.804Z,6.60
2022-08-09T21:36:56.740Z,6.03
2022-08-09T21:39:28.198Z,8.10
2022-08-09T21:42:10.223Z,6.55
2022-08-09T21:44:39.019Z,7.90
2022-08-09T21:47:11.782Z,7.32
2022-08-09T21:49:46.386Z,8.82
2022-08-09T21:52:20.545Z,6.90
2022-08-09T21:55:03.535Z,8.10
2022-08-09T21:57:38.325Z,6.50
2022-08-09T22:00:26.810Z,8.90
2022-08-09T22:03:05.513Z,7.88
2022-08-09T22:05:36.940Z,8.98
2022-08-09T22:08:13.073Z,7.50
2022-08-09T22:11:49.842Z,7.57
2022-08-09T22:13:34.771Z,8.20
2022-08-09T22:16:07.754Z,6.90
2022-08-09T22:18:54.418Z,9.80
2022-08-09T22:21:24.974Z,8.10
2022-08-09T22:24:01.708Z,9.40
2022-08-09T22:26:35.361Z,8.80
2022-08-09T22:29:09.256Z,8.82
2022-08-09T22:31:50.248Z,7.40
2022-08-09T22:34:27.280Z,6.93
2022-08-09T22:36:55.843Z,8.07
2022-08-09T22:39:56.202Z,8.20
2022-08-09T22:42:20.965Z,7.90
2022-08-09T22:45:11.568Z,10.93
2022-08-09T22:48:16.515Z,8.18
2022-08-09T22:50:29.631Z,9.95
2022-08-09T22:52:58.623Z,7.93
2022-08-09T22:55:39.654Z,10.65
2022-08-09T22:58:20.274Z,8.45
2022-08-09T23:00:59.543Z,7.30
2022-08-09T23:03:31.241Z,8.52
2022-08-09T23:06:35.816Z,7.82
2022-08-09T23:09:05.578Z,10.20
2022-08-09T23:11:33.604Z,10.68
2022-08-09T23:14:02.999Z,10.52
2022-08-09T23:16:31.401Z,10.85
2022-08-09T23:18:59.514Z,10.43
2022-08-09T23:21:34.349Z,13.90
2022-08-09T23:24:07.509Z,12.05
2022-08-09T23:26:36.637Z,8.90
2022-08-09T23:29:05.701Z,11.32
2022-08-09T23:31:34.403Z,12.40
2022-08-09T23:34:07.651Z,9.20
2022-08-09T23:36:37.442Z,11.70
2022-08-09T23:39:07.340Z,11.45
2022-08-09T23:41:37.218Z,10.85
2022-08-09T23:44:06.390Z,12.63
2022-08-09T23:46:34.922Z,10.00
2022-08-09T23:49:06.980Z,10.75
2022-08-09T23:51:36.454Z,11.80
2022-08-09T23:54:04.870Z,9.50
2022-08-09T23:56:53.435Z,12.30
2022-08-09T23:59:23.960Z,9.52
